Time;durP1;ratioP1;P1;durP2;ratioP2;P2;SDS_P1;SDS_P2;PMS_P1;PMS_P2;Temp;Humidity;BMP_temperature;BMP_pressure;BME280_temperature;BME280_humidity;BME280_pressure;Samples;Min_cycle;Max_cycle;Signal;HPM_P1;HPM_P2
2023/12/12 00:01:47;;;;;;;6.00;2.73;;;15.40;54.50;;;;;;5046769;28;20220;-55
2023/12/12 00:04:12;;;;;;;8.80;2.60;;;15.40;54.40;;;;;;5049418;28;20266;-55
2023/12/12 00:06:38;;;;;;;8.00;2.97;;;15.40;54.40;;;;;;5040956;28;20217;-55
2023/12/12 00:09:03;;;;;;;3.93;2.40;;;15.40;54.20;;;;;;5045713;28;20201;-57
2023/12/12 00:11:29;;;;;;;7.67;2.60;;;15.40;54.30;;;;;;5046850;28;20267;-52
2023/12/12 00:13:54;;;;;;;5.10;2.93;;;15.30;54.30;;;;;;5046441;28;20718;-56
2023/12/12 00:16:20;;;;;;;5.93;2.43;;;15.40;54.50;;;;;;5044137;28;20216;-53
2023/12/12 00:18:46;;;;;;;6.83;2.73;;;15.30;54.50;;;;;;5039019;28;20251;-56
2023/12/12 00:21:11;;;;;;;5.97;2.30;;;15.30;54.50;;;;;;5038322;28;20656;-56
2023/12/12 00:23:37;;;;;;;9.30;2.67;;;15.20;54.60;;;;;;5043945;28;20543;-55
2023/12/12 00:26:02;;;;;;;5.57;2.70;;;15.20;54.80;;;;;;5045919;28;20563;-52
2023/12/12 00:28:28;;;;;;;5.77;2.40;;;15.20;54.90;;;;;;5046900;28;20561;-55
2023/12/12 00:30:53;;;;;;;3.87;2.30;;;15.20;55.00;;;;;;5044717;28;20288;-54
2023/12/12 00:33:19;;;;;;;9.03;2.53;;;15.10;54.90;;;;;;5046296;28;20176;-51
2023/12/12 00:35:45;;;;;;;5.50;2.60;;;15.10;54.90;;;;;;5044928;28;20321;-56
2023/12/12 00:38:10;;;;;;;9.47;2.90;;;15.10;55.00;;;;;;5044414;28;20582;-55
2023/12/12 00:40:36;;;;;;;7.60;2.27;;;15.10;54.90;;;;;;5038250;28;20236;-56
2023/12/12 00:43:01;;;;;;;7.23;2.53;;;15.10;54.90;;;;;;5045744;28;20184;-55
2023/12/12 00:45:27;;;;;;;10.00;2.83;;;15.10;54.70;;;;;;5041150;28;20236;-54
2023/12/12 00:47:53;;;;;;;5.40;3.10;;;15.20;54.70;;;;;;5042850;28;20189;-54
2023/12/12 00:50:18;;;;;;;5.47;2.70;;;15.10;54.70;;;;;;5039943;28;20216;-54
2023/12/12 00:52:44;;;;;;;7.03;2.87;;;15.10;54.70;;;;;;5046899;28;20426;-55
2023/12/12 00:55:09;;;;;;;6.00;2.83;;;15.10;54.70;;;;;;5043358;28;20187;-55
2023/12/12 00:57:35;;;;;;;6.07;2.57;;;15.20;54.60;;;;;;5043169;28;20220;-56
2023/12/12 01:00:01;;;;;;;4.67;2.07;;;15.20;55.00;;;;;;5037779;28;20641;-54
2023/12/12 01:02:26;;;;;;;7.93;2.23;;;15.30;55.70;;;;;;5044442;28;20363;-57
2023/12/12 01:04:53;;;;;;;4.60;1.90;;;15.50;55.90;;;;;;5039891;28;20540;-58
2023/12/12 01:07:19;;;;;;;3.90;2.10;;;15.70;56.00;;;;;;5043878;28;20228;-57
2023/12/12 01:09:45;;;;;;;6.27;2.40;;;15.90;55.70;;;;;;5039258;28;20919;-57
2023/12/12 01:12:10;;;;;;;5.73;2.33;;;16.10;55.10;;;;;;5042016;28;20522;-55
2023/12/12 01:14:36;;;;;;;3.97;2.63;;;16.30;54.40;;;;;;5039982;28;20446;-56
2023/12/12 01:17:06;;;;;;;5.87;2.17;;;16.40;54.00;;;;;;5042398;28;20251;-55
2023/12/12 01:19:31;;;;;;;4.60;2.37;;;16.50;53.80;;;;;;5039344;28;20209;-55
2023/12/12 01:21:57;;;;;;;6.47;1.83;;;16.60;53.30;;;;;;5040034;28;20431;-52
2023/12/12 01:24:22;;;;;;;9.73;2.67;;;16.60;53.00;;;;;;5042860;28;20197;-54
2023/12/12 01:26:48;;;;;;;4.83;2.03;;;16.60;53.20;;;;;;5039834;28;20180;-54
2023/12/12 01:29:16;;;;;;;5.67;2.10;;;16.60;53.10;;;;;;5042943;28;20227;-56
2023/12/12 01:31:42;;;;;;;3.23;2.50;;;16.70;53.80;;;;;;5038662;28;20192;-54
2023/12/12 01:34:08;;;;;;;7.47;2.20;;;16.80;53.90;;;;;;5040421;28;20573;-55
2023/12/12 01:36:34;;;;;;;6.83;2.30;;;16.90;53.20;;;;;;5045379;28;20861;-56
2023/12/12 01:38:59;;;;;;;4.47;2.30;;;16.90;52.60;;;;;;5043616;28;20601;-54
2023/12/12 01:41:25;;;;;;;3.80;1.83;;;17.00;53.20;;;;;;5039005;28;20760;-56
2023/12/12 01:43:51;;;;;;;4.93;2.17;;;17.10;52.70;;;;;;5038157;28;20212;-55
2023/12/12 01:46:17;;;;;;;6.83;2.67;;;17.10;51.90;;;;;;5040764;28;20192;-56
2023/12/12 01:48:43;;;;;;;2.87;1.87;;;17.10;51.60;;;;;;5043346;28;20216;-56
2023/12/12 01:51:10;;;;;;;8.63;2.57;;;17.10;51.40;;;;;;5036354;28;20969;-57
2023/12/12 01:53:40;;;;;;;4.07;2.20;;;17.00;51.40;;;;;;5043330;28;20194;-55
2023/12/12 01:56:07;;;;;;;5.80;2.50;;;16.90;52.80;;;;;;5040222;28;20485;-53
2023/12/12 01:58:35;;;;;;;6.30;2.53;;;17.00;53.30;;;;;;5035365;28;20471;-53
2023/12/12 02:01:02;;;;;;;6.00;2.03;;;17.00;52.60;;;;;;5040817;28;20463;-55
2023/12/12 02:03:29;;;;;;;6.20;2.17;;;17.10;52.60;;;;;;5039196;28;20489;-55
2023/12/12 02:05:59;;;;;;;4.37;1.97;;;17.10;52.10;;;;;;5040538;28;20479;-59
2023/12/12 02:08:28;;;;;;;3.30;2.07;;;17.10;52.00;;;;;;5036483;28;20461;-56
2023/12/12 02:10:54;;;;;;;4.00;1.83;;;17.10;52.00;;;;;;5040657;28;20523;-54
2023/12/12 02:13:20;;;;;;;7.40;2.50;;;17.10;51.80;;;;;;5045651;28;20493;-56
2023/12/12 02:15:47;;;;;;;4.17;2.20;;;17.10;52.00;;;;;;5047023;28;20504;-55
2023/12/12 02:18:14;;;;;;;6.37;2.37;;;17.20;51.90;;;;;;5049995;28;20475;-56
2023/12/12 02:20:40;;;;;;;6.43;2.70;;;17.20;51.60;;;;;;5046151;28;20516;-55
2023/12/12 02:23:05;;;;;;;3.10;1.73;;;17.30;51.40;;;;;;5050139;28;20819;-56
2023/12/12 02:25:31;;;;;;;6.80;2.20;;;17.20;51.30;;;;;;5045981;28;20493;-53
2023/12/12 02:27:59;;;;;;;4.27;1.77;;;17.20;51.40;;;;;;5049618;28;20238;-55
2023/12/12 02:30:24;;;;;;;3.73;1.73;;;17.20;51.60;;;;;;5047819;28;20836;-55
2023/12/12 02:32:50;;;;;;;4.00;2.13;;;17.20;51.70;;;;;;5047386;28;20484;-55
2023/12/12 02:35:15;;;;;;;4.27;1.90;;;17.20;51.70;;;;;;5041384;28;20185;-57
2023/12/12 02:37:41;;;;;;;7.23;1.80;;;17.20;51.80;;;;;;5041755;28;20277;-52
2023/12/12 02:40:08;;;;;;;4.53;1.90;;;17.20;51.80;;;;;;5045441;28;20212;-56
2023/12/12 02:42:34;;;;;;;3.53;2.03;;;17.20;52.10;;;;;;5049580;28;20622;-56
2023/12/12 02:44:59;;;;;;;5.13;1.83;;;17.20;51.90;;;;;;5043047;28;20449;-55
2023/12/12 02:47:25;;;;;;;4.07;1.80;;;17.30;51.70;;;;;;5035867;28;20230;-57
2023/12/12 02:49:50;;;;;;;5.03;2.17;;;17.40;51.70;;;;;;5037656;28;20278;-55
2023/12/12 02:52:16;;;;;;;3.40;1.90;;;17.50;51.60;;;;;;5046031;28;20730;-56
2023/12/12 02:54:42;;;;;;;4.50;1.80;;;17.40;51.10;;;;;;5045720;28;20191;-53
2023/12/12 02:57:07;;;;;;;6.53;2.60;;;17.40;51.00;;;;;;5045863;28;20224;-56
2023/12/12 02:59:33;;;;;;;3.30;1.80;;;17.50;52.30;;;;;;5038187;28;20261;-54
2023/12/12 03:01:59;;;;;;;3.83;1.83;;;17.50;51.70;;;;;;5047579;28;20197;-56
2023/12/12 03:04:24;;;;;;;5.07;1.67;;;17.50;51.60;;;;;;5041447;28;20181;-53
2023/12/12 03:06:50;;;;;;;2.60;2.03;;;17.40;51.00;;;;;;5045290;28;20227;-56
2023/12/12 03:09:15;;;;;;;3.87;2.07;;;17.30;51.20;;;;;;5049793;28;20219;-53
2023/12/12 03:11:41;;;;;;;1.90;1.63;;;17.20;51.60;;;;;;5046961;28;20719;-56
2023/12/12 03:14:07;;;;;;;2.47;1.70;;;17.20;51.70;;;;;;5042952;28;20551;-54
2023/12/12 03:16:33;;;;;;;3.37;1.90;;;17.10;52.20;;;;;;5046225;28;20704;-53
2023/12/12 03:18:58;;;;;;;4.43;1.90;;;17.00;52.20;;;;;;5047342;28;20447;-53
2023/12/12 03:21:24;;;;;;;3.03;1.90;;;17.10;52.70;;;;;;5047657;28;20180;-53
2023/12/12 03:23:50;;;;;;;1.90;1.50;;;16.90;52.00;;;;;;5045506;28;20653;-56
2023/12/12 03:26:15;;;;;;;2.27;2.07;;;16.50;52.40;;;;;;5031235;28;20193;-55
2023/12/12 03:28:41;;;;;;;3.37;2.00;;;16.10;52.90;;;;;;5047318;28;20205;-52
2023/12/12 03:31:08;;;;;;;7.50;2.20;;;15.90;53.40;;;;;;5048828;28;20222;-53
2023/12/12 03:33:33;;;;;;;2.73;2.10;;;15.90;53.40;;;;;;5045413;28;20328;-57
2023/12/12 03:35:59;;;;;;;6.73;2.03;;;15.90;53.50;;;;;;5046272;28;20518;-52
2023/12/12 03:38:24;;;;;;;4.53;2.17;;;15.90;53.60;;;;;;5042570;28;20211;-57
2023/12/12 03:40:50;;;;;;;4.70;1.87;;;15.80;53.70;;;;;;5040154;28;20211;-55
2023/12/12 03:43:16;;;;;;;5.77;1.67;;;15.70;53.70;;;;;;5046139;28;20245;-55
2023/12/12 03:45:42;;;;;;;4.73;2.00;;;15.60;53.90;;;;;;5042789;28;20574;-54
2023/12/12 03:48:08;;;;;;;3.43;1.60;;;15.40;54.20;;;;;;5046801;28;20203;-55
2023/12/12 03:50:34;;;;;;;3.87;1.87;;;15.40;54.60;;;;;;5046389;28;20463;-57
2023/12/12 03:52:59;;;;;;;2.13;1.67;;;15.30;54.70;;;;;;5038143;28;20558;-54
2023/12/12 03:55:25;;;;;;;2.93;1.80;;;15.20;54.60;;;;;;5044708;28;20435;-55
2023/12/12 03:57:50;;;;;;;3.63;1.97;;;15.20;54.80;;;;;;5042591;28;20953;-56
2023/12/12 04:00:16;;;;;;;2.13;1.50;;;15.00;55.30;;;;;;5043612;28;20283;-55
2023/12/12 04:02:41;;;;;;;4.73;2.20;;;14.90;55.50;;;;;;5041130;28;20196;-55
2023/12/12 04:05:10;;;;;;;3.13;1.20;;;14.80;55.70;;;;;;5047562;28;20200;-56
2023/12/12 04:07:37;;;;;;;5.23;1.60;;;14.70;56.10;;;;;;5048193;28;20185;-55
2023/12/12 04:10:05;;;;;;;2.20;1.40;;;14.70;56.30;;;;;;5047370;28;20466;-54
2023/12/12 04:12:30;;;;;;;6.13;2.13;;;14.60;56.30;;;;;;5044721;28;20996;-55
2023/12/12 04:14:56;;;;;;;5.07;1.77;;;14.60;56.30;;;;;;5046100;28;20473;-54
2023/12/12 04:17:21;;;;;;;1.83;1.23;;;14.60;56.20;;;;;;5046543;28;20252;-53
2023/12/12 04:19:47;;;;;;;5.50;1.40;;;14.70;56.10;;;;;;5049476;28;20224;-56
2023/12/12 04:22:12;;;;;;;4.30;1.70;;;14.70;56.00;;;;;;5048831;28;20621;-52
2023/12/12 04:24:38;;;;;;;5.63;2.00;;;14.70;56.20;;;;;;5048280;28;20921;-54
2023/12/12 04:27:04;;;;;;;4.10;1.40;;;14.60;56.20;;;;;;5047691;28;20562;-53
2023/12/12 04:29:29;;;;;;;3.10;1.87;;;14.30;56.50;;;;;;5042129;28;20239;-55
2023/12/12 04:31:56;;;;;;;4.03;1.73;;;14.20;56.80;;;;;;5046388;28;20559;-55
2023/12/12 04:34:21;;;;;;;2.10;1.40;;;14.30;56.90;;;;;;5045122;28;20672;-54
2023/12/12 04:36:47;;;;;;;5.20;1.80;;;14.30;56.80;;;;;;5046275;28;20562;-56
2023/12/12 04:39:19;;;;;;;5.53;1.80;;;14.40;56.70;;;;;;5046478;28;20208;-51
2023/12/12 04:41:45;;;;;;;2.80;1.57;;;14.40;56.60;;;;;;5047025;28;20544;-57
2023/12/12 04:44:11;;;;;;;2.33;1.67;;;14.00;57.10;;;;;;5041738;28;20439;-53
2023/12/12 04:46:36;;;;;;;1.87;1.60;;;13.90;57.50;;;;;;5039341;28;20192;-56
2023/12/12 04:49:03;;;;;;;3.33;2.00;;;14.00;57.50;;;;;;5045445;28;20757;-54
2023/12/12 04:51:29;;;;;;;4.50;2.30;;;14.20;57.30;;;;;;5038030;28;20259;-57
2023/12/12 04:53:54;;;;;;;4.20;1.87;;;14.20;56.90;;;;;;5046000;28;20467;-52
2023/12/12 04:56:20;;;;;;;5.50;2.00;;;14.20;56.70;;;;;;5039153;28;20257;-54
2023/12/12 04:58:46;;;;;;;3.70;2.13;;;14.30;56.80;;;;;;5045098;28;20232;-54
2023/12/12 05:01:14;;;;;;;6.50;2.53;;;14.40;56.70;;;;;;5044747;28;20215;-53
2023/12/12 05:03:40;;;;;;;9.27;2.10;;;14.40;56.40;;;;;;5046434;28;20447;-53
2023/12/12 05:06:07;;;;;;;3.73;1.73;;;14.40;56.40;;;;;;5045459;28;20806;-54
2023/12/12 05:08:32;;;;;;;7.63;2.10;;;14.40;56.30;;;;;;5040908;28;20189;-55
2023/12/12 05:10:58;;;;;;;3.43;1.90;;;14.40;56.30;;;;;;5045655;28;20446;-54
2023/12/12 05:13:24;;;;;;;4.80;2.03;;;14.40;56.50;;;;;;5042224;28;20207;-54
2023/12/12 05:15:49;;;;;;;3.87;2.17;;;14.30;56.40;;;;;;5043390;28;20439;-53
2023/12/12 05:18:15;;;;;;;1.97;1.70;;;14.30;56.40;;;;;;5043508;28;20339;-55
2023/12/12 05:20:41;;;;;;;3.50;1.80;;;14.40;56.40;;;;;;5047331;28;20662;-54
2023/12/12 05:23:07;;;;;;;4.43;2.10;;;14.40;56.30;;;;;;5047253;28;20202;-53
2023/12/12 05:25:33;;;;;;;5.03;3.03;;;14.40;56.20;;;;;;5046879;28;20188;-53
2023/12/12 05:27:59;;;;;;;4.60;3.00;;;14.40;56.30;;;;;;5047170;28;20802;-54
2023/12/12 05:30:24;;;;;;;7.03;3.30;;;14.30;56.20;;;;;;5043527;28;20454;-52
2023/12/12 05:32:50;;;;;;;5.90;3.30;;;14.30;56.20;;;;;;5042175;28;20450;-52
2023/12/12 05:35:16;;;;;;;2.50;2.03;;;14.30;56.20;;;;;;5044914;28;20192;-52
2023/12/12 05:37:41;;;;;;;4.07;2.30;;;14.20;56.10;;;;;;5046527;28;20277;-53
2023/12/12 05:40:07;;;;;;;4.53;3.00;;;14.10;56.30;;;;;;5045494;28;20216;-54
2023/12/12 05:42:33;;;;;;;7.60;2.57;;;14.00;56.70;;;;;;5047111;28;20191;-55
2023/12/12 05:44:59;;;;;;;3.50;2.53;;;13.80;57.00;;;;;;5038183;28;20185;-53
2023/12/12 05:47:25;;;;;;;6.00;2.17;;;13.70;57.40;;;;;;5036601;28;20691;-56
2023/12/12 05:49:50;;;;;;;4.87;2.03;;;13.70;57.60;;;;;;5045253;28;20238;-56
2023/12/12 05:52:16;;;;;;;2.20;1.93;;;13.70;57.60;;;;;;5044800;28;20196;-55
2023/12/12 05:54:42;;;;;;;3.80;1.80;;;13.80;57.60;;;;;;5045159;28;22085;-55
2023/12/12 05:57:08;;;;;;;2.30;2.10;;;13.60;57.60;;;;;;5044411;28;20224;-52
2023/12/12 05:59:34;;;;;;;3.27;2.20;;;13.60;57.80;;;;;;5042341;28;20465;-52
2023/12/12 06:02:00;;;;;;;2.13;1.70;;;13.70;57.80;;;;;;5044869;28;20222;-53
2023/12/12 06:04:27;;;;;;;4.03;2.10;;;13.60;57.80;;;;;;5045265;28;20599;-55
2023/12/12 06:06:52;;;;;;;2.27;1.50;;;13.60;57.90;;;;;;5041889;28;20502;-52
2023/12/12 06:09:18;;;;;;;5.73;2.50;;;13.60;58.00;;;;;;5039176;28;20450;-52
2023/12/12 06:11:43;;;;;;;4.07;2.33;;;13.60;58.00;;;;;;5044078;28;20195;-52
2023/12/12 06:14:09;;;;;;;4.60;2.50;;;13.50;58.10;;;;;;5042770;28;20188;-56
2023/12/12 06:16:35;;;;;;;5.03;2.10;;;13.40;58.20;;;;;;5044137;28;20188;-52
2023/12/12 06:19:04;;;;;;;6.23;2.87;;;13.40;58.70;;;;;;5043334;28;20253;-54
2023/12/12 06:21:32;;;;;;;6.20;2.60;;;13.30;58.90;;;;;;5039099;28;20267;-54
2023/12/12 06:23:59;;;;;;;7.27;2.50;;;13.20;59.10;;;;;;5044204;28;20443;-54
2023/12/12 06:26:26;;;;;;;11.43;2.90;;;13.40;59.00;;;;;;5043219;28;20466;-54
2023/12/12 06:28:52;;;;;;;3.90;2.47;;;13.50;58.70;;;;;;5041347;28;20458;-55
2023/12/12 06:31:17;;;;;;;7.20;2.50;;;13.40;58.80;;;;;;5033053;28;20443;-56
2023/12/12 06:33:43;;;;;;;4.67;2.60;;;13.40;59.00;;;;;;5038978;28;20194;-54
2023/12/12 06:36:09;;;;;;;3.90;2.17;;;13.30;59.30;;;;;;5041208;28;20248;-54
2023/12/12 06:38:35;;;;;;;5.00;2.23;;;13.20;59.60;;;;;;5042155;28;20228;-53
2023/12/12 06:41:00;;;;;;;5.50;2.17;;;13.10;59.80;;;;;;5042929;28;20504;-55
2023/12/12 06:43:26;;;;;;;4.73;2.53;;;13.20;60.80;;;;;;5037023;28;20605;-53
2023/12/12 06:45:51;;;;;;;7.80;2.53;;;13.50;61.00;;;;;;5037819;28;20184;-56
2023/12/12 06:48:18;;;;;;;6.50;2.53;;;13.60;61.00;;;;;;5036263;28;20211;-56
2023/12/12 06:50:43;;;;;;;3.03;2.30;;;13.70;60.00;;;;;;5045196;28;20211;-52
2023/12/12 06:53:10;;;;;;;3.90;2.57;;;13.80;59.50;;;;;;5044533;28;20411;-54
2023/12/12 06:55:37;;;;;;;3.10;2.70;;;13.80;59.20;;;;;;5041899;28;20200;-56
2023/12/12 06:58:03;;;;;;;6.40;2.70;;;13.80;59.30;;;;;;5042047;28;20495;-54
2023/12/12 07:00:29;;;;;;;3.90;2.70;;;13.80;59.30;;;;;;5049760;28;20833;-56
2023/12/12 07:02:55;;;;;;;5.00;2.60;;;13.80;59.40;;;;;;5044442;28;20438;-55
2023/12/12 07:05:21;;;;;;;4.80;2.83;;;13.90;59.20;;;;;;5048480;28;20181;-56
2023/12/12 07:07:47;;;;;;;5.97;2.60;;;13.80;59.20;;;;;;5044636;28;20496;-55
2023/12/12 07:10:13;;;;;;;4.90;2.50;;;13.90;58.90;;;;;;5050129;28;20653;-55
2023/12/12 07:12:39;;;;;;;7.87;2.70;;;13.70;58.70;;;;;;5042705;28;20439;-56
2023/12/12 07:15:07;;;;;;;4.37;3.33;;;13.80;59.20;;;;;;5045373;28;20438;-56
2023/12/12 07:17:32;;;;;;;4.47;2.70;;;13.80;59.10;;;;;;5040132;28;20225;-55
2023/12/12 07:19:58;;;;;;;3.47;3.00;;;13.90;59.10;;;;;;5050142;28;20793;-54
2023/12/12 07:22:23;;;;;;;6.27;2.90;;;14.10;58.50;;;;;;5041036;28;20272;-57
2023/12/12 07:24:49;;;;;;;4.90;3.03;;;14.10;58.20;;;;;;5036535;28;20262;-54
2023/12/12 07:27:16;;;;;;;4.33;3.80;;;14.00;58.40;;;;;;5047574;28;20247;-56
2023/12/12 07:29:41;;;;;;;12.30;3.07;;;13.90;58.40;;;;;;5043744;28;20607;-55
2023/12/12 07:32:07;;;;;;;6.00;3.50;;;13.30;59.50;;;;;;5047470;28;20443;-56
2023/12/12 07:34:32;;;;;;;5.50;3.23;;;13.40;60.00;;;;;;5043167;28;20844;-55
2023/12/12 07:36:58;;;;;;;8.60;3.50;;;13.40;59.70;;;;;;5048444;28;20212;-54
2023/12/12 07:39:23;;;;;;;4.33;3.93;;;13.30;60.10;;;;;;5046409;28;20212;-55
2023/12/12 07:41:49;;;;;;;4.53;4.13;;;13.40;60.00;;;;;;5048553;28;20200;-54
2023/12/12 07:44:14;;;;;;;7.50;2.97;;;13.50;59.90;;;;;;5049143;28;20242;-53
2023/12/12 07:46:40;;;;;;;5.90;3.33;;;13.50;59.70;;;;;;5048294;28;20281;-55
2023/12/12 07:49:06;;;;;;;3.83;2.83;;;13.60;59.70;;;;;;5047372;28;20806;-54
2023/12/12 07:51:32;;;;;;;5.63;2.57;;;13.70;59.30;;;;;;5041172;28;20292;-57
2023/12/12 07:53:58;;;;;;;8.40;3.50;;;13.80;58.90;;;;;;5047897;28;20506;-55
2023/12/12 07:56:24;;;;;;;3.03;2.53;;;13.80;59.00;;;;;;5044053;28;20661;-54
2023/12/12 07:58:49;;;;;;;7.93;3.00;;;13.90;58.60;;;;;;5040311;28;20562;-55
2023/12/12 08:01:15;;;;;;;4.13;2.33;;;13.90;58.90;;;;;;5046175;28;20601;-55
2023/12/12 08:03:41;;;;;;;4.43;2.93;;;14.00;58.50;;;;;;5047054;28;20197;-52
2023/12/12 08:06:07;;;;;;;7.77;3.33;;;14.10;58.40;;;;;;5046362;28;20565;-53
2023/12/12 08:08:33;;;;;;;8.47;3.73;;;14.10;58.50;;;;;;5041734;28;20443;-55
2023/12/12 08:10:59;;;;;;;5.03;3.40;;;14.20;58.40;;;;;;5042169;28;21571;-56
2023/12/12 08:13:25;;;;;;;6.37;4.27;;;14.30;58.40;;;;;;5049485;28;20177;-55
2023/12/12 08:15:50;;;;;;;4.20;3.50;;;14.40;58.20;;;;;;5046898;28;20180;-52
2023/12/12 08:18:16;;;;;;;10.23;4.23;;;14.50;58.20;;;;;;5048993;28;22269;-53
2023/12/12 08:20:41;;;;;;;5.40;2.77;;;14.50;58.40;;;;;;5042070;28;20205;-57
2023/12/12 08:23:07;;;;;;;4.93;2.80;;;14.40;58.40;;;;;;5048549;28;20196;-54
2023/12/12 08:25:32;;;;;;;4.23;2.27;;;14.30;58.70;;;;;;5044029;28;20185;-56
2023/12/12 08:27:58;;;;;;;4.00;2.43;;;14.20;59.10;;;;;;5046584;28;20752;-55
2023/12/12 08:30:24;;;;;;;4.60;2.37;;;14.10;59.60;;;;;;5038709;28;20200;-56
2023/12/12 08:32:49;;;;;;;3.50;2.30;;;14.10;59.80;;;;;;5036131;28;20188;-55
2023/12/12 08:35:15;;;;;;;4.13;2.90;;;14.20;59.60;;;;;;5040265;28;20196;-56
2023/12/12 08:37:40;;;;;;;6.40;3.00;;;14.10;59.50;;;;;;5046197;28;20215;-55
2023/12/12 08:40:07;;;;;;;2.80;2.43;;;14.20;59.70;;;;;;5045001;28;20243;-56
2023/12/12 08:42:32;;;;;;;3.70;3.03;;;14.20;59.60;;;;;;5037789;28;20222;-54
2023/12/12 08:44:58;;;;;;;6.23;3.27;;;14.10;59.80;;;;;;5042810;28;20443;-55
2023/12/12 08:47:24;;;;;;;5.17;3.30;;;13.90;60.50;;;;;;5042523;28;20185;-58
2023/12/12 08:49:49;;;;;;;6.70;2.40;;;13.90;60.50;;;;;;5036926;28;20937;-58
2023/12/12 08:52:15;;;;;;;13.23;3.23;;;14.00;60.60;;;;;;5045980;28;20191;-57
2023/12/12 08:54:45;;;;;;;4.43;2.57;;;13.90;60.60;;;;;;5037719;28;20192;-56
2023/12/12 08:57:12;;;;;;;5.73;2.70;;;13.90;61.10;;;;;;5046017;28;20224;-56
2023/12/12 08:59:38;;;;;;;9.43;3.20;;;13.90;60.60;;;;;;5045317;28;20512;-56
2023/12/12 09:02:04;;;;;;;7.97;2.97;;;13.90;60.50;;;;;;5042423;28;20465;-57
2023/12/12 09:04:29;;;;;;;5.60;3.07;;;14.00;60.40;;;;;;5040740;28;20443;-56
2023/12/12 09:06:55;;;;;;;3.13;2.83;;;13.90;60.60;;;;;;5037257;28;20272;-56
2023/12/12 09:09:22;;;;;;;4.90;2.83;;;13.90;60.70;;;;;;5040745;28;20557;-57
2023/12/12 09:11:48;;;;;;;6.80;3.60;;;13.90;60.80;;;;;;5044810;28;20184;-57
2023/12/12 09:14:13;;;;;;;5.40;2.27;;;13.70;61.20;;;;;;5041642;28;20446;-54
2023/12/12 09:16:39;;;;;;;3.13;2.53;;;13.70;61.50;;;;;;5043290;28;20242;-54
2023/12/12 09:19:06;;;;;;;7.40;3.10;;;13.70;61.50;;;;;;5042003;28;20721;-56
2023/12/12 09:21:31;;;;;;;7.10;2.20;;;13.80;61.10;;;;;;5046325;28;20188;-58
2023/12/12 09:23:57;;;;;;;9.33;2.50;;;13.60;61.70;;;;;;5043511;28;20450;-56
2023/12/12 09:26:22;;;;;;;5.37;3.00;;;13.60;62.10;;;;;;5044029;28;20201;-57
2023/12/12 09:28:48;;;;;;;5.07;2.57;;;13.70;61.90;;;;;;5032581;28;20204;-57
2023/12/12 09:31:14;;;;;;;7.37;3.50;;;13.80;61.50;;;;;;5036975;28;20185;-55
2023/12/12 09:33:39;;;;;;;3.97;2.70;;;13.80;61.00;;;;;;5045602;28;20247;-58
2023/12/12 09:36:08;;;;;;;5.00;3.20;;;13.90;60.90;;;;;;5037240;28;20606;-55
2023/12/12 09:38:34;;;;;;;4.33;2.80;;;14.00;60.70;;;;;;5042638;28;20240;-56
2023/12/12 09:41:01;;;;;;;3.43;2.30;;;14.10;60.20;;;;;;5043678;28;20431;-54
2023/12/12 09:43:28;;;;;;;3.50;2.40;;;14.00;60.40;;;;;;5039427;28;20189;-57
2023/12/12 09:45:57;;;;;;;4.43;3.07;;;13.70;61.50;;;;;;5036329;28;20954;-58
2023/12/12 09:48:24;;;;;;;4.00;2.40;;;13.90;61.70;;;;;;5044677;28;20450;-57
2023/12/12 09:50:51;;;;;;;5.23;2.57;;;13.90;61.70;;;;;;5038823;28;20458;-57
2023/12/12 09:53:18;;;;;;;4.53;3.00;;;14.20;61.50;;;;;;5044196;28;20434;-57
2023/12/12 09:55:45;;;;;;;5.73;3.57;;;14.30;61.30;;;;;;5037778;28;20930;-57
2023/12/12 09:58:11;;;;;;;3.87;2.90;;;14.30;60.70;;;;;;5042968;28;20467;-57
2023/12/12 10:00:36;;;;;;;5.30;3.33;;;14.20;61.30;;;;;;5040849;28;20524;-58
2023/12/12 10:03:05;;;;;;;4.80;3.30;;;14.20;62.30;;;;;;5042676;28;20451;-55
2023/12/12 10:05:32;;;;;;;4.43;2.83;;;14.00;62.00;;;;;;5045323;28;20212;-57
2023/12/12 10:08:01;;;;;;;4.17;3.50;;;13.90;63.00;;;;;;5042200;28;21034;-57
2023/12/12 10:10:27;;;;;;;5.47;2.90;;;13.90;63.10;;;;;;5040887;28;20516;-54
2023/12/12 10:12:52;;;;;;;7.43;3.10;;;13.90;63.30;;;;;;5040390;28;20982;-55
2023/12/12 10:15:25;;;;;;;5.67;3.70;;;13.90;63.10;;;;;;5039180;28;20189;-56
2023/12/12 10:17:58;;;;;;;3.60;2.90;;;13.70;63.60;;;;;;5045968;28;20216;-56
2023/12/12 10:20:29;;;;;;;3.00;2.80;;;13.70;63.90;;;;;;5057985;22;20449;-61
2023/12/12 10:22:58;;;;;;;3.30;2.10;;;13.80;63.90;;;;;;5044878;28;20447;-59
2023/12/12 10:25:24;;;;;;;4.50;2.50;;;13.90;64.50;;;;;;5040170;28;20454;-58
2023/12/12 10:27:53;;;;;;;2.53;2.30;;;13.90;64.60;;;;;;5040156;28;20807;-55
2023/12/12 10:30:21;;;;;;;6.13;2.80;;;13.90;65.30;;;;;;5046647;28;20208;-57
2023/12/12 10:32:51;;;;;;;4.07;2.70;;;13.90;66.10;;;;;;5046037;28;20445;-58
2023/12/12 10:35:20;;;;;;;3.27;2.60;;;13.80;66.50;;;;;;5045495;28;20442;-57
2023/12/12 10:37:45;;;;;;;3.80;2.97;;;13.40;69.00;;;;;;5047034;28;20475;-58
2023/12/12 10:40:15;;;;;;;4.80;3.53;;;13.30;69.60;;;;;;5050327;28;20961;-59
2023/12/12 10:42:41;;;;;;;4.33;3.20;;;13.60;69.70;;;;;;5044014;28;20211;-59
2023/12/12 10:45:11;;;;;;;5.73;2.90;;;13.60;70.20;;;;;;5045602;28;20443;-58
2023/12/12 10:47:44;;;;;;;4.80;3.13;;;13.70;69.10;;;;;;5041183;28;20290;-58
2023/12/12 10:50:15;;;;;;;7.67;5.83;;;14.00;68.90;;;;;;5041022;28;20470;-59
2023/12/12 10:52:43;;;;;;;9.10;3.27;;;14.20;67.90;;;;;;5044965;28;20812;-59
2023/12/12 10:55:10;;;;;;;3.20;1.97;;;14.40;67.40;;;;;;5040594;28;20443;-59
2023/12/12 10:57:43;;;;;;;3.87;2.47;;;14.60;67.30;;;;;;5044636;28;20482;-58
2023/12/12 11:00:14;;;;;;;1.90;1.80;;;14.60;67.80;;;;;;5044846;28;21155;-59
2023/12/12 11:02:41;;;;;;;2.70;2.00;;;14.50;68.10;;;;;;5047809;28;20532;-59
2023/12/12 11:05:14;;;;;;;3.83;2.43;;;14.20;69.40;;;;;;5032241;28;20419;-59
2023/12/12 11:07:42;;;;;;;2.60;1.90;;;14.50;69.30;;;;;;5043357;28;20454;-58
2023/12/12 11:10:10;;;;;;;2.77;2.47;;;14.60;69.20;;;;;;5049660;28;20443;-60
2023/12/12 11:12:44;;;;;;;1.90;1.70;;;14.50;69.70;;;;;;5048726;28;20986;-58
2023/12/12 11:15:12;;;;;;;1.73;1.63;;;14.20;71.70;;;;;;5048756;28;20441;-58
2023/12/12 11:17:38;;;;;;;2.20;1.60;;;14.10;72.50;;;;;;5043807;28;20482;-60
2023/12/12 11:20:35;;;;;;;2.97;1.90;;;14.00;73.60;;;;;;5043348;28;20475;-59
2023/12/12 11:23:03;;;;;;;3.13;1.83;;;14.00;73.80;;;;;;5045420;28;21032;-59
2023/12/12 11:25:30;;;;;;;1.80;1.70;;;14.00;74.70;;;;;;5049336;28;20431;-59
2023/12/12 11:27:58;;;;;;;2.20;2.00;;;14.10;74.20;;;;;;5047812;28;20488;-58
2023/12/12 11:30:34;;;;;;;2.57;1.60;;;14.30;73.70;;;;;;5043754;28;21801;-59
2023/12/12 11:33:03;;;;;;;2.67;1.93;;;14.40;73.00;;;;;;5040220;28;20431;-58
2023/12/12 11:35:30;;;;;;;1.60;1.50;;;14.30;73.00;;;;;;5045559;28;20474;-59
2023/12/12 11:38:04;;;;;;;1.67;1.57;;;14.20;73.40;;;;;;5044311;28;21006;-59
2023/12/12 11:40:32;;;;;;;3.50;2.37;;;14.30;73.80;;;;;;5045207;28;20447;-58
2023/12/12 11:43:18;;;;;;;1.90;1.70;;;14.40;73.50;;;;;;5048309;28;20431;-58
2023/12/12 11:45:44;;;;;;;1.70;1.60;;;14.60;72.60;;;;;;5042693;28;21113;-58
2023/12/12 11:48:10;;;;;;;1.67;1.57;;;14.40;72.90;;;;;;5047297;28;20573;-60
2023/12/12 11:50:36;;;;;;;3.60;1.50;;;14.40;73.40;;;;;;5044388;28;20449;-59
2023/12/12 11:53:03;;;;;;;2.07;1.47;;;14.20;74.80;;;;;;5044214;28;20796;-59
2023/12/12 11:55:32;;;;;;;3.17;1.50;;;14.30;75.40;;;;;;5043668;28;20188;-56
2023/12/12 11:58:05;;;;;;;2.20;1.80;;;14.00;76.30;;;;;;5044405;28;20475;-59
2023/12/12 12:00:36;;;;;;;1.93;1.50;;;14.20;76.40;;;;;;5047748;28;20471;-59
2023/12/12 12:03:04;;;;;;;1.60;1.50;;;14.30;75.70;;;;;;5048419;28;20426;-56
2023/12/12 12:05:30;;;;;;;2.30;1.70;;;14.40;75.50;;;;;;5048488;28;20415;-59
2023/12/12 12:07:56;;;;;;;2.40;1.53;;;14.60;74.80;;;;;;5042737;28;20439;-59
2023/12/12 12:10:23;;;;;;;3.90;2.23;;;14.70;74.20;;;;;;5048925;28;20207;-59
2023/12/12 12:12:52;;;;;;;2.23;1.70;;;14.80;73.90;;;;;;5049173;28;20180;-58
2023/12/12 12:15:18;;;;;;;0.93;0.93;;;14.80;73.80;;;;;;5045908;28;20451;-58
2023/12/12 12:17:43;;;;;;;1.87;1.77;;;14.90;73.30;;;;;;5047861;28;20483;-62
2023/12/12 12:20:09;;;;;;;1.60;1.50;;;14.80;73.30;;;;;;5048082;28;20204;-59
2023/12/12 12:22:38;;;;;;;1.30;1.20;;;14.80;74.00;;;;;;5048351;28;20311;-59
2023/12/12 12:25:05;;;;;;;1.30;1.20;;;14.90;73.80;;;;;;5045890;28;20556;-59
2023/12/12 12:27:31;;;;;;;2.63;1.83;;;14.60;74.30;;;;;;5044689;28;20435;-57
2023/12/12 12:30:05;;;;;;;5.20;2.77;;;14.30;76.20;;;;;;5045179;28;20458;-58
2023/12/12 12:32:32;;;;;;;3.07;2.10;;;14.30;76.60;;;;;;5045193;28;20513;-58
2023/12/12 12:35:11;;;;;;;2.50;2.00;;;14.10;78.20;;;;;;5042772;28;20454;-59
2023/12/12 12:37:40;;;;;;;2.43;1.70;;;14.00;80.00;;;;;;5047370;28;20932;-59
2023/12/12 12:40:11;;;;;;;2.80;2.00;;;14.10;80.00;;;;;;5044350;28;20556;-56
2023/12/12 12:42:38;;;;;;;2.07;1.77;;;14.40;78.70;;;;;;5047740;28;20435;-59